PWSweather.com
Personal Weather Stations
Station Observations
KMNGREYC2
Grey Cloud Island, Grey Cloud Island, MN 55071

Grey Cloud IslandGrey Cloud Island, MN 55071

Lat: 44.799333, Lon: -92.987851

Elevation: 700

Station Type: Davis VP2

www.jagielski.com/weather/conditions.htm

High Low Average
Temperature 15.0°F-9.4°C -12.7°F-24.8°C 2.9°F-16.2°C
Dew Point 10.3°F-12.1°C -17.9°F-27.7°C -2.9°F-19.4°C
Winds 9.0 mph 14.5 kmh Calm Calm 2.0 mph WSW3.2 kmh WSW
Wind Gusts 17.0 mph27.4 kmh -- 6.0 mph9.7 kmh
Humidity 83% 68% 77%
Pressure 30.71 in1040.0 mb 30.00 in1015.9 mb -
Precipitation 0.00 in0.0 mm - -
Hour Temp Dew Point Humidity Winds Wind Gusts Pressure Precip Precip Rate Daily Precip Total
12:00 AM -7.6°F-22.0°C -12.1°F-24.5°C 80% Calm Calm 3.0 mph4.8 kmh 30.71 in1040.0 mb 0.00 in0.0 mm 0.00 in0.0 mm 0.00 in0.0 mm
12:15 AM -7.5°F-21.9°C -12.0°F-24.4°C 80% Calm Calm 3.0 mph4.8 kmh 30.70 in1039.6 mb 0.00 in0.0 mm 0.00 in0.0 mm 0.00 in0.0 mm
12:30 AM -7.5°F-21.9°C -12.0°F-24.4°C 80% Calm Calm 2.0 mph3.2 kmh 30.69 in1039.3 mb 0.00 in0.0 mm 0.00 in0.0 mm 0.00 in0.0 mm
12:45 AM -7.6°F-22.0°C -12.1°F-24.5°C 80% Calm Calm 3.0 mph4.8 kmh 30.69 in1039.3 mb 0.00 in0.0 mm 0.00 in0.0 mm 0.00 in0.0 mm
01:00 AM -7.6°F-22.0°C -12.1°F-24.5°C 80% Calm Calm 2.0 mph3.2 kmh 30.67 in1038.6 mb 0.00 in0.0 mm 0.00 in0.0 mm 0.00 in0.0 mm
01:15 AM -7.5°F-21.9°C -12.0°F-24.4°C 80% Calm Calm 3.0 mph4.8 kmh 30.67 in1038.6 mb 0.00 in0.0 mm 0.00 in0.0 mm 0.00 in0.0 mm
01:30 AM -7.8°F-22.1°C -12.6°F-24.8°C 79% Calm Calm -- 30.66 in1038.3 mb 0.00 in0.0 mm 0.00 in0.0 mm 0.00 in0.0 mm
01:45 AM -8.4°F-22.4°C -13.4°F-25.2°C 78% Calm Calm -- 30.65 in1037.9 mb 0.00 in0.0 mm 0.00 in0.0 mm 0.00 in0.0 mm
02:00 AM -9.0°F-22.8°C -14.0°F-25.6°C 78% Calm Calm -- 30.65 in1037.9 mb 0.00 in0.0 mm 0.00 in0.0 mm 0.00 in0.0 mm
02:15 AM -9.4°F-23.0°C -14.4°F-25.8°C 78% Calm Calm -- 30.65 in1037.9 mb 0.00 in0.0 mm 0.00 in0.0 mm 0.00 in0.0 mm
02:30 AM -10.0°F-23.3°C -15.0°F-26.1°C 78% Calm Calm -- 30.64 in1037.6 mb 0.00 in0.0 mm 0.00 in0.0 mm 0.00 in0.0 mm
02:45 AM -10.3°F-23.5°C -15.3°F-26.3°C 78% Calm Calm 2.0 mph3.2 kmh 30.64 in1037.6 mb 0.00 in0.0 mm 0.00 in0.0 mm 0.00 in0.0 mm
03:00 AM -10.6°F-23.7°C -15.3°F-26.3°C 79% Calm Calm -- 30.64 in1037.6 mb 0.00 in0.0 mm 0.00 in0.0 mm 0.00 in0.0 mm
03:15 AM -10.4°F-23.6°C -14.6°F-25.9°C 81% Calm Calm 2.0 mph3.2 kmh 30.62 in1036.9 mb 0.00 in0.0 mm 0.00 in0.0 mm 0.00 in0.0 mm
03:30 AM -9.5°F-23.1°C -13.2°F-25.1°C 83% Calm Calm -- 30.62 in1036.9 mb 0.00 in0.0 mm 0.00 in0.0 mm 0.00 in0.0 mm
03:45 AM -8.9°F-22.7°C -12.7°F-24.8°C 83% Calm Calm 4.0 mph6.4 kmh 30.61 in1036.6 mb 0.00 in0.0 mm 0.00 in0.0 mm 0.00 in0.0 mm
04:00 AM -8.8°F-22.7°C -12.8°F-24.9°C 82% Calm Calm -- 30.61 in1036.6 mb 0.00 in0.0 mm 0.00 in0.0 mm 0.00 in0.0 mm
04:15 AM -9.0°F-22.8°C -13.2°F-25.1°C 81% Calm Calm 2.0 mph3.2 kmh 30.61 in1036.6 mb 0.00 in0.0 mm 0.00 in0.0 mm 0.00 in0.0 mm
04:30 AM -9.3°F-22.9°C -13.5°F-25.3°C 81% Calm Calm 3.0 mph4.8 kmh 30.60 in1036.2 mb 0.00 in0.0 mm 0.00 in0.0 mm 0.00 in0.0 mm
04:45 AM -8.7°F-22.6°C -12.7°F-24.8°C 82% Calm Calm 3.0 mph4.8 kmh 30.59 in1035.9 mb 0.00 in0.0 mm 0.00 in0.0 mm 0.00 in0.0 mm
05:00 AM -8.1°F-22.3°C -12.4°F-24.7°C 81% Calm Calm 3.0 mph4.8 kmh 30.58 in1035.6 mb 0.00 in0.0 mm 0.00 in0.0 mm 0.00 in0.0 mm
05:15 AM -7.9°F-22.2°C -12.4°F-24.7°C 80% Calm Calm 4.0 mph6.4 kmh 30.58 in1035.6 mb 0.00 in0.0 mm 0.00 in0.0 mm 0.00 in0.0 mm
05:30 AM -8.0°F-22.2°C -13.0°F-25.0°C 78% 2.0 mph WSW3.2 kmh WSW 3.0 mph4.8 kmh 30.57 in1035.2 mb 0.00 in0.0 mm 0.00 in0.0 mm 0.00 in0.0 mm
05:45 AM -7.9°F-22.2°C -13.2°F-25.1°C 77% Calm Calm 4.0 mph6.4 kmh 30.56 in1034.9 mb 0.00 in0.0 mm 0.00 in0.0 mm 0.00 in0.0 mm
06:00 AM -7.7°F-22.1°C -13.2°F-25.1°C 76% 2.0 mph WSW3.2 kmh WSW 4.0 mph6.4 kmh 30.55 in1034.5 mb 0.00 in0.0 mm 0.00 in0.0 mm 0.00 in0.0 mm
06:15 AM -7.6°F-22.0°C -13.4°F-25.2°C 75% Calm Calm 4.0 mph6.4 kmh 30.54 in1034.2 mb 0.00 in0.0 mm 0.00 in0.0 mm 0.00 in0.0 mm
06:30 AM -8.1°F-22.3°C -14.2°F-25.7°C 74% Calm Calm 2.0 mph3.2 kmh 30.54 in1034.2 mb 0.00 in0.0 mm 0.00 in0.0 mm 0.00 in0.0 mm
06:45 AM -8.8°F-22.7°C -14.8°F-26.0°C 74% 2.0 mph WSW3.2 kmh WSW 4.0 mph6.4 kmh 30.53 in1033.9 mb 0.00 in0.0 mm 0.00 in0.0 mm 0.00 in0.0 mm
07:00 AM -9.4°F-23.0°C -15.4°F-26.3°C 74% 1.0 mph WSW1.6 kmh WSW 1.0 mph1.6 kmh 30.53 in1033.9 mb 0.00 in0.0 mm 0.00 in0.0 mm 0.00 in0.0 mm
07:15 AM -10.2°F-23.4°C -16.2°F-26.8°C 74% Calm Calm 2.0 mph3.2 kmh 30.51 in1033.2 mb 0.00 in0.0 mm 0.00 in0.0 mm 0.00 in0.0 mm
07:30 AM -11.1°F-23.9°C -17.1°F-27.3°C 74% 1.0 mph WSW1.6 kmh WSW 1.0 mph1.6 kmh 30.50 in1032.8 mb 0.00 in0.0 mm 0.00 in0.0 mm 0.00 in0.0 mm
07:45 AM -11.9°F-24.4°C -17.6°F-27.6°C 75% 1.0 mph WSW1.6 kmh WSW 1.0 mph1.6 kmh 30.50 in1032.8 mb 0.00 in0.0 mm 0.00 in0.0 mm 0.00 in0.0 mm
08:00 AM -12.4°F-24.7°C -17.8°F-27.7°C 76% Calm Calm 2.0 mph3.2 kmh 30.48 in1032.2 mb 0.00 in0.0 mm 0.00 in0.0 mm 0.00 in0.0 mm
08:15 AM -12.7°F-24.8°C -17.9°F-27.7°C 77% Calm Calm 2.0 mph3.2 kmh 30.48 in1032.2 mb 0.00 in0.0 mm 0.00 in0.0 mm 0.00 in0.0 mm
08:30 AM -12.2°F-24.6°C -16.9°F-27.2°C 79% 1.0 mph WSW1.6 kmh WSW 4.0 mph6.4 kmh 30.47 in1031.8 mb 0.00 in0.0 mm 0.00 in0.0 mm 0.00 in0.0 mm
08:45 AM -11.2°F-24.0°C -15.9°F-26.6°C 79% Calm Calm 4.0 mph6.4 kmh 30.45 in1031.2 mb 0.00 in0.0 mm 0.00 in0.0 mm 0.00 in0.0 mm
09:00 AM -10.1°F-23.4°C -15.1°F-26.2°C 78% 1.0 mph WSW1.6 kmh WSW 2.0 mph3.2 kmh 30.44 in1030.8 mb 0.00 in0.0 mm 0.00 in0.0 mm 0.00 in0.0 mm
09:15 AM -9.2°F-22.9°C -14.4°F-25.8°C 77% Calm Calm 3.0 mph4.8 kmh 30.43 in1030.5 mb 0.00 in0.0 mm 0.00 in0.0 mm 0.00 in0.0 mm
09:30 AM -8.4°F-22.4°C -13.7°F-25.4°C 77% Calm Calm 3.0 mph4.8 kmh 30.42 in1030.1 mb 0.00 in0.0 mm 0.00 in0.0 mm 0.00 in0.0 mm
09:45 AM -7.2°F-21.8°C -12.8°F-24.9°C 76% Calm Calm 4.0 mph6.4 kmh 30.40 in1029.5 mb 0.00 in0.0 mm 0.00 in0.0 mm 0.00 in0.0 mm
10:00 AM -5.9°F-21.1°C -11.5°F-24.2°C 76% 3.0 mph WSW4.8 kmh WSW 5.0 mph8.0 kmh 30.38 in1028.8 mb 0.00 in0.0 mm 0.00 in0.0 mm 0.00 in0.0 mm
10:15 AM -4.1°F-20.1°C -9.5°F-23.1°C 77% Calm Calm 5.0 mph8.0 kmh 30.38 in1028.8 mb 0.00 in0.0 mm 0.00 in0.0 mm 0.00 in0.0 mm
10:30 AM -1.8°F-18.8°C -7.2°F-21.8°C 77% Calm Calm 4.0 mph6.4 kmh 30.37 in1028.4 mb 0.00 in0.0 mm 0.00 in0.0 mm 0.00 in0.0 mm
10:45 AM -0.1°F-17.8°C -6.0°F-21.1°C 75% 2.0 mph WSW3.2 kmh WSW 5.0 mph8.0 kmh 30.36 in1028.1 mb 0.00 in0.0 mm 0.00 in0.0 mm 0.00 in0.0 mm
11:00 AM 1.4°F-17.0°C -4.7°F-20.4°C 75% 2.0 mph WSW3.2 kmh WSW 4.0 mph6.4 kmh 30.34 in1027.4 mb 0.00 in0.0 mm 0.00 in0.0 mm 0.00 in0.0 mm
11:15 AM 4.2°F-15.4°C -0.9°F-18.3°C 79% Calm Calm 8.0 mph12.9 kmh 30.32 in1026.8 mb 0.00 in0.0 mm 0.00 in0.0 mm 0.00 in0.0 mm
11:30 AM 6.9°F-13.9°C 1.2°F-17.1°C 77% 2.0 mph SW3.2 kmh SW 9.0 mph14.5 kmh 30.32 in1026.8 mb 0.00 in0.0 mm 0.00 in0.0 mm 0.00 in0.0 mm
11:45 AM 8.5°F-13.1°C 1.9°F-16.7°C 74% 3.0 mph SW4.8 kmh SW 10.0 mph16.1 kmh 30.29 in1025.7 mb 0.00 in0.0 mm 0.00 in0.0 mm 0.00 in0.0 mm
12:00 PM 9.9°F-12.3°C 2.7°F-16.3°C 72% 2.0 mph S3.2 kmh S 6.0 mph9.7 kmh 30.27 in1025.1 mb 0.00 in0.0 mm 0.00 in0.0 mm 0.00 in0.0 mm
12:15 PM 10.1°F-12.2°C 2.3°F-16.5°C 70% 2.0 mph NE3.2 kmh NE 10.0 mph16.1 kmh 30.25 in1024.4 mb 0.00 in0.0 mm 0.00 in0.0 mm 0.00 in0.0 mm
12:30 PM 10.0°F-12.2°C 1.9°F-16.7°C 69% 3.0 mph E4.8 kmh E 15.0 mph24.1 kmh 30.23 in1023.7 mb 0.00 in0.0 mm 0.00 in0.0 mm 0.00 in0.0 mm
12:45 PM 11.0°F-11.7°C 3.2°F-16.0°C 70% 5.0 mph S8.0 kmh S 15.0 mph24.1 kmh 30.21 in1023.0 mb 0.00 in0.0 mm 0.00 in0.0 mm 0.00 in0.0 mm
01:00 PM 11.0°F-11.7°C 2.8°F-16.2°C 69% 7.0 mph SW11.3 kmh SW 12.0 mph19.3 kmh 30.19 in1022.4 mb 0.00 in0.0 mm 0.00 in0.0 mm 0.00 in0.0 mm
01:15 PM 11.3°F-11.5°C 3.1°F-16.1°C 69% 5.0 mph WSW8.0 kmh WSW 13.0 mph20.9 kmh 30.16 in1021.3 mb 0.00 in0.0 mm 0.00 in0.0 mm 0.00 in0.0 mm
01:30 PM 11.4°F-11.4°C 2.9°F-16.2°C 68% 6.0 mph S9.7 kmh S 12.0 mph19.3 kmh 30.14 in1020.7 mb 0.00 in0.0 mm 0.00 in0.0 mm 0.00 in0.0 mm
01:45 PM 11.9°F-11.2°C 3.7°F-15.7°C 69% 3.0 mph SSW4.8 kmh SSW 12.0 mph19.3 kmh 30.12 in1020.0 mb 0.00 in0.0 mm 0.00 in0.0 mm 0.00 in0.0 mm
02:00 PM 12.4°F-10.9°C 4.2°F-15.4°C 69% 4.0 mph S6.4 kmh S 8.0 mph12.9 kmh 30.12 in1020.0 mb 0.00 in0.0 mm 0.00 in0.0 mm 0.00 in0.0 mm
02:15 PM 12.9°F-10.6°C 4.7°F-15.2°C 69% 1.0 mph S1.6 kmh S 12.0 mph19.3 kmh 30.10 in1019.3 mb 0.00 in0.0 mm 0.00 in0.0 mm 0.00 in0.0 mm
02:30 PM 13.2°F-10.4°C 5.0°F-15.0°C 69% 1.0 mph SW1.6 kmh SW 7.0 mph11.3 kmh 30.08 in1018.6 mb 0.00 in0.0 mm 0.00 in0.0 mm 0.00 in0.0 mm
02:45 PM 13.4°F-10.3°C 4.8°F-15.1°C 68% 5.0 mph SW8.0 kmh SW 11.0 mph17.7 kmh 30.08 in1018.6 mb 0.00 in0.0 mm 0.00 in0.0 mm 0.00 in0.0 mm
03:00 PM 13.3°F-10.4°C 5.1°F-14.9°C 69% 1.0 mph SSW1.6 kmh SSW 7.0 mph11.3 kmh 30.08 in1018.6 mb 0.00 in0.0 mm 0.00 in0.0 mm 0.00 in0.0 mm
03:15 PM 13.2°F-10.4°C 5.0°F-15.0°C 69% 3.0 mph S4.8 kmh S 12.0 mph19.3 kmh 30.06 in1017.9 mb 0.00 in0.0 mm 0.00 in0.0 mm 0.00 in0.0 mm
03:30 PM 13.2°F-10.4°C 5.0°F-15.0°C 69% 2.0 mph S3.2 kmh S 8.0 mph12.9 kmh 30.06 in1017.9 mb 0.00 in0.0 mm 0.00 in0.0 mm 0.00 in0.0 mm
03:45 PM 13.0°F-10.6°C 5.1°F-14.9°C 70% 2.0 mph SW3.2 kmh SW 9.0 mph14.5 kmh 30.03 in1016.9 mb 0.00 in0.0 mm 0.00 in0.0 mm 0.00 in0.0 mm
04:00 PM 12.8°F-10.7°C 4.9°F-15.1°C 70% 3.0 mph WSW4.8 kmh WSW 8.0 mph12.9 kmh 30.05 in1017.6 mb 0.00 in0.0 mm 0.00 in0.0 mm 0.00 in0.0 mm
04:15 PM 12.8°F-10.7°C 5.2°F-14.9°C 71% Calm Calm 12.0 mph19.3 kmh 30.05 in1017.6 mb 0.00 in0.0 mm 0.00 in0.0 mm 0.00 in0.0 mm
04:30 PM 12.9°F-10.6°C 5.9°F-14.5°C 73% 2.0 mph SW3.2 kmh SW 8.0 mph12.9 kmh 30.05 in1017.6 mb 0.00 in0.0 mm 0.00 in0.0 mm 0.00 in0.0 mm
04:45 PM 13.0°F-10.6°C 6.3°F-14.3°C 74% 3.0 mph SW4.8 kmh SW 13.0 mph20.9 kmh 30.04 in1017.3 mb 0.00 in0.0 mm 0.00 in0.0 mm 0.00 in0.0 mm
05:00 PM 12.8°F-10.7°C 7.3°F-13.7°C 78% 3.0 mph SW4.8 kmh SW 13.0 mph20.9 kmh 30.03 in1016.9 mb 0.00 in0.0 mm 0.00 in0.0 mm 0.00 in0.0 mm
05:15 PM 12.7°F-10.7°C 7.4°F-13.7°C 79% 9.0 mph S14.5 kmh S 13.0 mph20.9 kmh 30.03 in1016.9 mb 0.00 in0.0 mm 0.00 in0.0 mm 0.00 in0.0 mm
05:30 PM 12.9°F-10.6°C 7.6°F-13.6°C 79% 3.0 mph SW4.8 kmh SW 10.0 mph16.1 kmh 30.02 in1016.6 mb 0.00 in0.0 mm 0.00 in0.0 mm 0.00 in0.0 mm
05:45 PM 13.1°F-10.5°C 8.1°F-13.3°C 80% 3.0 mph SW4.8 kmh SW 12.0 mph19.3 kmh 30.02 in1016.6 mb 0.00 in0.0 mm 0.00 in0.0 mm 0.00 in0.0 mm
06:00 PM 13.2°F-10.4°C 8.2°F-13.2°C 80% 2.0 mph SW3.2 kmh SW 6.0 mph9.7 kmh 30.02 in1016.6 mb 0.00 in0.0 mm 0.00 in0.0 mm 0.00 in0.0 mm
06:15 PM 13.4°F-10.3°C 8.4°F-13.1°C 80% 5.0 mph SW8.0 kmh SW 10.0 mph16.1 kmh 30.01 in1016.3 mb 0.00 in0.0 mm 0.00 in0.0 mm 0.00 in0.0 mm
06:30 PM 13.5°F-10.3°C 8.5°F-13.1°C 80% 1.0 mph WSW1.6 kmh WSW 6.0 mph9.7 kmh 30.00 in1015.9 mb 0.00 in0.0 mm 0.00 in0.0 mm 0.00 in0.0 mm
06:45 PM 13.5°F-10.3°C 8.5°F-13.1°C 80% 6.0 mph WSW9.7 kmh WSW 9.0 mph14.5 kmh 30.01 in1016.3 mb 0.00 in0.0 mm 0.00 in0.0 mm 0.00 in0.0 mm
07:00 PM 13.6°F-10.2°C 8.9°F-12.8°C 81% 5.0 mph WSW8.0 kmh WSW 8.0 mph12.9 kmh 30.01 in1016.3 mb 0.00 in0.0 mm 0.00 in0.0 mm 0.00 in0.0 mm
07:15 PM 13.7°F-10.2°C 9.2°F-12.7°C 82% 1.0 mph WSW1.6 kmh WSW 9.0 mph14.5 kmh 30.01 in1016.3 mb 0.00 in0.0 mm 0.00 in0.0 mm 0.00 in0.0 mm
07:30 PM 13.8°F-10.1°C 9.3°F-12.6°C 82% Calm Calm 5.0 mph8.0 kmh 30.01 in1016.3 mb 0.00 in0.0 mm 0.00 in0.0 mm 0.00 in0.0 mm
07:45 PM 14.1°F-9.9°C 9.9°F-12.3°C 83% Calm Calm 8.0 mph12.9 kmh 30.01 in1016.3 mb 0.00 in0.0 mm 0.00 in0.0 mm 0.00 in0.0 mm
08:00 PM 14.3°F-9.8°C 10.1°F-12.2°C 83% 4.0 mph W6.4 kmh W 6.0 mph9.7 kmh 30.01 in1016.3 mb 0.00 in0.0 mm 0.00 in0.0 mm 0.00 in0.0 mm
08:15 PM 14.5°F-9.7°C 10.3°F-12.1°C 83% 3.0 mph W4.8 kmh W 8.0 mph12.9 kmh 30.01 in1016.3 mb 0.00 in0.0 mm 0.00 in0.0 mm 0.00 in0.0 mm
08:30 PM 14.6°F-9.7°C 10.1°F-12.2°C 82% 1.0 mph WSW1.6 kmh WSW 7.0 mph11.3 kmh 30.01 in1016.3 mb 0.00 in0.0 mm 0.00 in0.0 mm 0.00 in0.0 mm
08:45 PM 14.8°F-9.6°C 10.0°F-12.2°C 81% 6.0 mph WNW9.7 kmh WNW 11.0 mph17.7 kmh 30.00 in1015.9 mb 0.00 in0.0 mm 0.00 in0.0 mm 0.00 in0.0 mm
09:00 PM 15.0°F-9.4°C 10.0°F-12.2°C 80% Calm Calm 4.0 mph6.4 kmh 30.00 in1015.9 mb 0.00 in0.0 mm 0.00 in0.0 mm 0.00 in0.0 mm
09:15 PM 15.0°F-9.4°C 10.0°F-12.2°C 80% 2.0 mph WSW3.2 kmh WSW 9.0 mph14.5 kmh 30.00 in1015.9 mb 0.00 in0.0 mm 0.00 in0.0 mm 0.00 in0.0 mm
09:30 PM 14.8°F-9.6°C 10.0°F-12.2°C 81% Calm Calm 5.0 mph8.0 kmh 30.01 in1016.3 mb 0.00 in0.0 mm 0.00 in0.0 mm 0.00 in0.0 mm
09:45 PM 14.5°F-9.7°C 9.2°F-12.7°C 79% 9.0 mph WNW14.5 kmh WNW 12.0 mph19.3 kmh 30.01 in1016.3 mb 0.00 in0.0 mm 0.00 in0.0 mm 0.00 in0.0 mm
10:00 PM 14.4°F-9.8°C 8.8°F-12.9°C 78% 3.0 mph NW4.8 kmh NW 8.0 mph12.9 kmh 30.01 in1016.3 mb 0.00 in0.0 mm 0.00 in0.0 mm 0.00 in0.0 mm
10:15 PM 14.3°F-9.8°C 9.0°F-12.8°C 79% 5.0 mph NW8.0 kmh NW 10.0 mph16.1 kmh 30.03 in1016.9 mb 0.00 in0.0 mm 0.00 in0.0 mm 0.00 in0.0 mm
10:30 PM 14.3°F-9.8°C 9.0°F-12.8°C 79% 3.0 mph WNW4.8 kmh WNW 5.0 mph8.0 kmh 30.03 in1016.9 mb 0.00 in0.0 mm 0.00 in0.0 mm 0.00 in0.0 mm
10:45 PM 14.1°F-9.9°C 7.7°F-13.5°C 75% 8.0 mph WNW12.9 kmh WNW 17.0 mph27.4 kmh 30.03 in1016.9 mb 0.00 in0.0 mm 0.00 in0.0 mm 0.00 in0.0 mm
11:00 PM 13.9°F-10.1°C 6.6°F-14.1°C 72% 3.0 mph N4.8 kmh N 9.0 mph14.5 kmh 30.02 in1016.6 mb 0.00 in0.0 mm 0.00 in0.0 mm 0.00 in0.0 mm
11:15 PM 13.7°F-10.2°C 5.8°F-14.6°C 70% 3.0 mph NW4.8 kmh NW 13.0 mph20.9 kmh 30.02 in1016.6 mb 0.00 in0.0 mm 0.00 in0.0 mm 0.00 in0.0 mm
11:30 PM 13.6°F-10.2°C 5.7°F-14.6°C 70% 3.0 mph NW4.8 kmh NW 9.0 mph14.5 kmh 30.03 in1016.9 mb 0.00 in0.0 mm 0.00 in0.0 mm 0.00 in0.0 mm
11:45 PM 13.5°F-10.3°C 5.6°F-14.7°C 70% Calm Calm 11.0 mph17.7 kmh 30.04 in1017.3 mb 0.00 in0.0 mm 0.00 in0.0 mm 0.00 in0.0 mm